createdAt,value
2018-05-24T00:00:56.679Z,55.22
2018-05-24T00:01:56.609Z,55.22
2018-05-24T00:02:56.563Z,55.51
2018-05-24T00:03:56.523Z,55.41
2018-05-24T00:04:56.471Z,55.32
2018-05-24T00:05:56.448Z,55.41
2018-05-24T00:06:56.382Z,55.89
2018-05-24T00:07:56.345Z,55.51
2018-05-24T00:08:56.289Z,55.69
2018-05-24T00:09:56.243Z,55.79
2018-05-24T00:10:56.220Z,55.79
2018-05-24T00:11:56.150Z,55.41
2018-05-24T00:12:56.107Z,55.60
2018-05-24T00:13:56.061Z,55.51
2018-05-24T00:14:56.013Z,55.22
2018-05-24T00:15:55.992Z,55.22
2018-05-24T00:16:55.918Z,55.32
2018-05-24T00:17:55.875Z,55.22
2018-05-24T00:18:55.829Z,55.12
2018-05-24T00:19:55.783Z,55.32
2018-05-24T00:20:55.759Z,55.22
2018-05-24T00:21:55.693Z,55.41
2018-05-24T00:22:55.644Z,55.69
2018-05-24T00:24:02.797Z,55.60
2018-05-24T00:24:55.558Z,55.60
2018-05-24T00:25:55.530Z,55.60
2018-05-24T00:26:55.467Z,55.41
2018-05-24T00:27:55.415Z,55.69
2018-05-24T00:28:55.370Z,55.89
2018-05-24T00:29:55.323Z,55.99
2018-05-24T00:30:55.305Z,56.18
2018-05-24T00:31:55.235Z,56.18
2018-05-24T00:32:55.190Z,56.05
2018-05-24T00:33:55.143Z,57.14
2018-05-24T00:34:55.091Z,56.73
2018-05-24T00:35:55.076Z,57.14
2018-05-24T00:36:55.005Z,57.04
2018-05-24T00:37:54.955Z,56.73
2018-05-24T00:38:54.910Z,56.73
2018-05-24T00:39:54.866Z,56.73
2018-05-24T00:40:54.842Z,57.11
2018-05-24T00:41:54.780Z,57.21
2018-05-24T00:42:54.725Z,56.76
2018-05-24T00:43:54.680Z,57.78
2018-05-24T00:44:54.636Z,57.68
2018-05-24T00:45:54.611Z,57.68
2018-05-24T00:46:54.540Z,57.78
2018-05-24T00:47:54.496Z,57.88
2018-05-24T00:48:54.449Z,57.68
2018-05-24T00:49:54.404Z,57.50
2018-05-24T00:50:54.388Z,57.50
2018-05-24T00:51:54.313Z,57.78
2018-05-24T00:52:54.267Z,57.68
2018-05-24T00:53:54.221Z,57.68
2018-05-24T00:54:54.173Z,57.62
2018-05-24T00:55:54.152Z,56.85
2018-05-24T00:56:54.082Z,57.30
2018-05-24T00:57:54.036Z,57.04
2018-05-24T00:58:53.991Z,57.04
2018-05-24T00:59:53.949Z,57.88
2018-05-24T01:00:53.926Z,57.81
2018-05-24T01:01:53.853Z,57.62
2018-05-24T01:02:53.805Z,57.68
2018-05-24T01:03:53.764Z,57.01
2018-05-24T01:04:53.716Z,57.78
2018-05-24T01:05:53.694Z,57.68
2018-05-24T01:06:53.627Z,57.71
2018-05-24T01:07:53.580Z,57.68
2018-05-24T01:08:53.540Z,57.30
2018-05-24T01:09:53.485Z,57.59
2018-05-24T01:10:53.468Z,58.26
2018-05-24T01:11:53.397Z,58.29
2018-05-24T01:12:53.347Z,58.36
2018-05-24T01:13:53.312Z,58.36
2018-05-24T01:14:53.257Z,57.97
2018-05-24T01:15:53.262Z,58.55
2018-05-24T01:16:53.163Z,57.78
2018-05-24T01:17:53.117Z,58.36
2018-05-24T01:18:53.074Z,58.26
2018-05-24T01:19:53.027Z,58.64
2018-05-24T01:20:53.009Z,58.45
2018-05-24T01:21:52.938Z,58.36
2018-05-24T01:22:52.902Z,58.45
2018-05-24T01:23:52.844Z,59.03
2018-05-24T01:24:52.798Z,58.55
2018-05-24T01:25:52.775Z,58.74
2018-05-24T01:26:52.704Z,59.51
2018-05-24T01:27:52.659Z,58.74
2018-05-24T01:28:52.613Z,58.64
2018-05-24T01:29:52.564Z,59.61
2018-05-24T01:30:52.550Z,59.12
2018-05-24T01:31:52.477Z,59.22
2018-05-24T01:32:52.427Z,59.03
2018-05-24T01:33:52.384Z,59.03
2018-05-24T01:34:52.338Z,59.80
2018-05-24T01:35:52.314Z,59.80
2018-05-24T01:36:52.245Z,59.80
2018-05-24T01:37:52.198Z,59.61
2018-05-24T01:38:52.154Z,59.61
2018-05-24T01:39:52.109Z,59.61
2018-05-24T01:40:52.085Z,59.89
2018-05-24T01:41:52.015Z,59.70
2018-05-24T01:42:51.967Z,59.61
2018-05-24T01:43:51.922Z,59.51
2018-05-24T01:44:51.879Z,59.70
2018-05-24T01:45:51.867Z,59.99
2018-05-24T01:46:51.790Z,59.32
2018-05-24T01:47:51.740Z,59.70
2018-05-24T01:48:51.695Z,59.51
2018-05-24T01:49:51.649Z,59.99
2018-05-24T01:50:51.603Z,60.08
2018-05-24T01:51:51.582Z,59.99
2018-05-24T01:52:51.509Z,60.08
2018-05-24T01:53:51.462Z,59.89
2018-05-24T01:54:51.416Z,60.75
2018-05-24T01:55:51.369Z,60.28
2018-05-24T01:56:51.343Z,59.89
2018-05-24T01:57:51.278Z,59.99
2018-05-24T01:58:51.233Z,59.89
2018-05-24T01:59:51.185Z,60.38
2018-05-24T02:00:51.139Z,60.28
2018-05-24T02:01:51.118Z,60.63
2018-05-24T02:02:51.049Z,60.72
2018-05-24T02:03:51.007Z,60.63
2018-05-24T02:04:50.958Z,61.02
2018-05-24T02:05:50.909Z,60.63
2018-05-24T02:06:50.886Z,60.92
2018-05-24T02:07:50.816Z,60.92
2018-05-24T02:08:50.770Z,60.92
2018-05-24T02:09:50.725Z,60.92
2018-05-24T02:10:50.679Z,61.02
2018-05-24T02:11:50.661Z,60.92
2018-05-24T02:12:50.586Z,60.82
2018-05-24T02:13:50.540Z,60.92
2018-05-24T02:14:50.494Z,60.72
2018-05-24T02:15:50.457Z,61.11
2018-05-24T02:16:50.424Z,60.92
2018-05-24T02:17:50.354Z,60.72
2018-05-24T02:18:50.318Z,61.11
2018-05-24T02:19:50.265Z,60.92
2018-05-24T02:20:50.220Z,60.53
2018-05-24T02:21:50.193Z,61.11
2018-05-24T02:22:50.127Z,61.11
2018-05-24T02:23:50.084Z,61.18
2018-05-24T02:24:50.033Z,61.94
2018-05-24T02:25:49.984Z,61.88
2018-05-24T02:26:49.963Z,61.49
2018-05-24T02:27:49.898Z,61.85
2018-05-24T02:28:49.848Z,61.46
2018-05-24T02:29:49.805Z,61.66
2018-05-24T02:30:49.753Z,61.56
2018-05-24T02:31:49.735Z,61.27
2018-05-24T02:32:49.667Z,61.37
2018-05-24T02:33:49.629Z,61.85
2018-05-24T02:34:49.574Z,61.37
2018-05-24T02:35:49.548Z,61.85
2018-05-24T02:36:49.499Z,62.42
2018-05-24T02:37:49.430Z,61.85
2018-05-24T02:38:49.387Z,62.52
2018-05-24T02:39:49.340Z,62.62
2018-05-24T02:40:49.295Z,62.23
2018-05-24T02:41:49.274Z,62.42
2018-05-24T02:42:49.199Z,62.62
2018-05-24T02:43:49.154Z,62.71
2018-05-24T02:44:49.106Z,62.81
2018-05-24T02:45:49.065Z,63.00
2018-05-24T02:46:49.037Z,63.29
2018-05-24T02:47:48.967Z,63.00
2018-05-24T02:48:48.924Z,63.19
2018-05-24T02:49:48.878Z,63.09
2018-05-24T02:50:48.829Z,63.29
2018-05-24T02:51:48.811Z,62.81
2018-05-24T02:52:48.737Z,63.09
2018-05-24T02:53:48.690Z,63.09
2018-05-24T02:54:48.647Z,63.00
2018-05-24T02:55:48.598Z,63.09
2018-05-24T02:56:48.576Z,63.19
2018-05-24T02:57:48.516Z,63.06
2018-05-24T02:58:48.460Z,63.00
2018-05-24T02:59:48.412Z,63.09
2018-05-24T03:00:48.363Z,63.64
2018-05-24T03:01:48.348Z,63.35
2018-05-24T03:02:48.274Z,64.02
2018-05-24T03:03:48.227Z,63.64
2018-05-24T03:04:48.211Z,64.02
2018-05-24T03:05:48.132Z,64.31
2018-05-24T03:06:48.121Z,64.22
2018-05-24T03:07:48.043Z,64.50
2018-05-24T03:08:47.993Z,64.22
2018-05-24T03:09:47.948Z,64.31
2018-05-24T03:10:47.896Z,64.02
2018-05-24T03:11:47.883Z,64.22
2018-05-24T03:12:47.808Z,64.31
2018-05-24T03:13:47.763Z,64.22
2018-05-24T03:14:47.714Z,64.02
2018-05-24T03:15:47.674Z,64.31
2018-05-24T03:16:47.646Z,64.02
2018-05-24T03:17:47.573Z,64.79
2018-05-24T03:18:54.734Z,65.08
2018-05-24T03:19:47.483Z,64.50
2018-05-24T03:20:47.434Z,64.89
2018-05-24T03:21:47.409Z,64.98
2018-05-24T03:22:47.340Z,65.17
2018-05-24T03:23:47.297Z,65.17
2018-05-24T03:24:47.243Z,65.17
2018-05-24T03:25:47.211Z,64.69
2018-05-24T03:26:47.178Z,64.79
2018-05-24T03:27:47.109Z,64.98
2018-05-24T03:28:47.058Z,64.79
2018-05-24T03:29:47.011Z,64.98
2018-05-24T03:30:46.967Z,64.89
2018-05-24T03:31:46.947Z,64.59
2018-05-24T03:32:46.876Z,65.08
2018-05-24T03:33:46.827Z,65.17
2018-05-24T03:34:46.780Z,64.98
2018-05-24T03:35:46.738Z,65.17
2018-05-24T03:36:46.709Z,64.98
2018-05-24T03:37:46.643Z,64.89
2018-05-24T03:38:46.594Z,64.79
2018-05-24T03:39:46.554Z,65.17
2018-05-24T03:40:46.499Z,65.08
2018-05-24T03:41:46.476Z,64.79
2018-05-24T03:42:46.411Z,65.26
2018-05-24T03:43:46.362Z,65.20
2018-05-24T03:44:46.316Z,65.11
2018-05-24T03:45:46.279Z,65.17
2018-05-24T03:46:46.249Z,65.01
2018-05-24T03:47:46.174Z,64.69
2018-05-24T03:48:46.129Z,65.46
2018-05-24T03:49:46.080Z,64.98
2018-05-24T03:50:46.034Z,64.89
2018-05-24T03:51:46.015Z,65.08
2018-05-24T03:52:45.944Z,65.49
2018-05-24T03:53:45.899Z,66.22
2018-05-24T03:54:45.849Z,65.94
2018-05-24T03:55:45.800Z,66.35
2018-05-24T03:56:45.784Z,66.74
2018-05-24T03:57:45.753Z,66.74
2018-05-24T03:58:45.664Z,66.61
2018-05-24T03:59:45.618Z,66.22
2018-05-24T04:00:45.571Z,66.45
2018-05-24T04:01:45.570Z,65.75
2018-05-24T04:02:45.478Z,65.65
2018-05-24T04:03:45.429Z,66.35
2018-05-24T04:04:45.380Z,65.49
2018-05-24T04:05:45.430Z,65.55
2018-05-24T04:06:45.293Z,66.35
2018-05-24T04:07:45.274Z,66.13
2018-05-24T04:08:45.197Z,65.55
2018-05-24T04:09:45.151Z,66.22
2018-05-24T04:10:45.106Z,66.51
2018-05-24T04:11:45.059Z,66.22
2018-05-24T04:12:45.035Z,66.42
2018-05-24T04:13:44.973Z,66.71
2018-05-24T04:14:44.922Z,66.55
2018-05-24T04:15:44.871Z,66.42
2018-05-24T04:16:44.826Z,66.61
2018-05-24T04:17:44.806Z,66.61
2018-05-24T04:18:44.733Z,66.99
2018-05-24T04:19:44.693Z,67.47
2018-05-24T04:20:44.648Z,66.42
2018-05-24T04:21:44.594Z,67.18
2018-05-24T04:22:44.573Z,67.18
2018-05-24T04:23:44.503Z,67.76
2018-05-24T04:24:44.453Z,67.76
2018-05-24T04:25:44.411Z,67.76
2018-05-24T04:26:44.360Z,67.57
2018-05-24T04:27:44.344Z,68.05
2018-05-24T04:28:44.272Z,67.85
2018-05-24T04:29:44.225Z,67.85
2018-05-24T04:30:44.181Z,68.81
2018-05-24T04:31:44.133Z,69.39
2018-05-24T04:32:44.119Z,69.01
2018-05-24T04:33:44.038Z,68.24
2018-05-24T04:34:43.994Z,68.33
2018-05-24T04:35:43.946Z,68.72
2018-05-24T04:36:43.900Z,68.43
2018-05-24T04:37:43.878Z,68.14
2018-05-24T04:38:43.804Z,68.91
2018-05-24T04:39:43.760Z,68.43
2018-05-24T04:40:43.713Z,67.85
2018-05-24T04:41:43.669Z,68.18
2018-05-24T04:42:43.646Z,68.14
2018-05-24T04:43:43.580Z,69.48
2018-05-24T04:44:43.528Z,70.09
2018-05-24T04:45:43.489Z,70.38
2018-05-24T04:46:43.437Z,71.25
2018-05-24T04:47:43.413Z,69.52
2018-05-24T04:48:43.348Z,69.81
2018-05-24T04:49:43.299Z,68.27
2018-05-24T04:50:43.252Z,68.27
2018-05-24T04:51:43.205Z,68.46
2018-05-24T04:52:43.184Z,68.46
2018-05-24T04:53:43.113Z,69.04
2018-05-24T04:54:43.066Z,68.56
2018-05-24T04:55:43.025Z,69.13
2018-05-24T04:56:42.975Z,69.23
2018-05-24T04:57:42.954Z,69.42
2018-05-24T04:58:42.880Z,69.93
2018-05-24T04:59:42.844Z,69.36
2018-05-24T05:00:42.789Z,67.92
2018-05-24T05:01:42.837Z,67.92
2018-05-24T05:02:42.725Z,69.07
2018-05-24T05:03:42.649Z,69.65
2018-05-24T05:04:42.610Z,68.79
2018-05-24T05:05:42.561Z,69.07
2018-05-24T05:06:42.556Z,68.79
2018-05-24T05:07:42.498Z,68.53
2018-05-24T05:08:42.426Z,67.63
2018-05-24T05:09:43.199Z,67.83
2018-05-24T05:10:42.353Z,67.16
2018-05-24T05:11:42.288Z,66.49
2018-05-24T05:12:42.265Z,66.77
2018-05-24T05:13:42.198Z,67.44
2018-05-24T05:14:42.189Z,67.73
2018-05-24T05:15:42.103Z,67.83
2018-05-24T05:16:42.059Z,68.59
2018-05-24T05:17:42.032Z,68.12
2018-05-24T05:18:41.962Z,68.59
2018-05-24T05:19:41.920Z,68.79
2018-05-24T05:20:41.871Z,68.69
2018-05-24T05:21:41.826Z,68.21
2018-05-24T05:22:41.808Z,68.21
2018-05-24T05:23:41.738Z,68.30
2018-05-24T05:24:41.694Z,68.12
2018-05-24T05:25:41.644Z,68.12
2018-05-24T05:26:41.608Z,68.12
2018-05-24T05:27:41.580Z,68.59
2018-05-24T05:28:41.518Z,67.92
2018-05-24T05:29:41.461Z,68.50
2018-05-24T05:30:41.499Z,68.40
2018-05-24T05:31:41.370Z,69.11
2018-05-24T05:32:41.348Z,68.44
2018-05-24T05:33:41.281Z,68.34
2018-05-24T05:34:41.230Z,68.05
2018-05-24T05:35:41.186Z,68.21
2018-05-24T05:36:41.141Z,68.79
2018-05-24T05:37:41.120Z,68.98
2018-05-24T05:38:41.050Z,69.56
2018-05-24T05:39:41.004Z,69.93
2018-05-24T05:40:40.960Z,69.36
2018-05-24T05:41:40.914Z,69.74
2018-05-24T05:42:40.898Z,70.32
2018-05-24T05:43:40.829Z,70.70
2018-05-24T05:44:40.793Z,70.29
2018-05-24T05:45:40.734Z,70.80
2018-05-24T05:46:40.684Z,69.84
2018-05-24T05:47:40.663Z,70.23
2018-05-24T05:48:40.597Z,70.03
2018-05-24T05:49:40.547Z,69.87
2018-05-24T05:50:40.505Z,69.68
2018-05-24T05:51:40.455Z,69.87
2018-05-24T05:52:40.435Z,69.59
2018-05-24T05:53:40.363Z,69.78
2018-05-24T05:54:40.325Z,69.40
2018-05-24T05:55:40.273Z,68.82
2018-05-24T05:56:40.225Z,69.49
2018-05-24T05:57:40.216Z,69.68
2018-05-24T05:58:40.136Z,69.40
2018-05-24T05:59:40.099Z,69.93
2018-05-24T06:00:40.045Z,70.99
2018-05-24T06:01:40.069Z,70.99
2018-05-24T06:02:39.983Z,71.19
2018-05-24T06:03:39.913Z,71.31
2018-05-24T06:04:39.875Z,71.12
2018-05-24T06:05:39.816Z,70.20
2018-05-24T06:06:39.770Z,70.01
2018-05-24T06:07:39.722Z,70.01
2018-05-24T06:08:39.713Z,70.20
2018-05-24T06:09:39.636Z,69.62
2018-05-24T06:10:39.594Z,70.04
2018-05-24T06:11:39.544Z,69.08
2018-05-24T06:12:39.498Z,69.08
2018-05-24T06:13:39.479Z,68.35
2018-05-24T06:14:39.408Z,68.21
2018-05-24T06:15:39.366Z,68.25
2018-05-24T06:16:39.322Z,68.83
2018-05-24T06:17:39.271Z,66.91
2018-05-24T06:18:39.254Z,67.38
2018-05-24T06:19:39.189Z,67.86
2018-05-24T06:20:39.140Z,68.25
2018-05-24T06:21:39.120Z,67.86
2018-05-24T06:22:39.052Z,67.00
2018-05-24T06:23:39.030Z,67.00
2018-05-24T06:24:38.963Z,66.81
2018-05-24T06:25:38.909Z,67.80
2018-05-24T06:26:38.869Z,66.94
2018-05-24T06:27:38.825Z,66.42
2018-05-24T06:28:38.806Z,66.91
2018-05-24T06:29:38.732Z,67.77
2018-05-24T06:30:38.681Z,67.68
2018-05-24T06:31:38.640Z,67.10
2018-05-24T06:32:38.599Z,68.57
2018-05-24T06:33:38.574Z,68.29
2018-05-24T06:34:38.509Z,67.03
2018-05-24T06:35:38.465Z,66.94
2018-05-24T06:36:38.418Z,66.65
2018-05-24T06:37:38.375Z,66.88
2018-05-24T06:38:38.355Z,67.93
2018-05-24T06:39:38.288Z,66.58
2018-05-24T06:40:38.275Z,65.53
2018-05-24T06:41:38.198Z,66.97
2018-05-24T06:42:38.151Z,66.01
2018-05-24T06:43:38.130Z,66.88
2018-05-24T06:44:38.061Z,66.68
2018-05-24T06:45:38.019Z,66.84
2018-05-24T06:46:37.973Z,67.80
2018-05-24T06:47:37.929Z,68.29
2018-05-24T06:48:37.909Z,68.73
2018-05-24T06:49:37.837Z,68.57
2018-05-24T06:50:37.808Z,68.63
2018-05-24T06:51:37.752Z,68.67
2018-05-24T06:52:37.716Z,68.19
2018-05-24T06:53:37.727Z,68.09
2018-05-24T06:54:37.621Z,68.57
2018-05-24T06:55:37.575Z,68.29
2018-05-24T06:56:37.531Z,68.19
2018-05-24T06:57:37.488Z,68.76
2018-05-24T06:58:37.465Z,68.76
2018-05-24T06:59:37.396Z,69.15
2018-05-24T07:00:37.389Z,68.67
2018-05-24T07:01:37.309Z,69.53
2018-05-24T07:02:37.267Z,70.11
2018-05-24T07:03:37.245Z,69.44
2018-05-24T07:04:37.176Z,68.90
2018-05-24T07:05:37.132Z,68.51
2018-05-24T07:06:37.090Z,69.38
2018-05-24T07:07:37.044Z,69.79
2018-05-24T07:08:37.030Z,67.58
2018-05-24T07:09:36.955Z,66.71
2018-05-24T07:10:36.924Z,67.10
2018-05-24T07:11:36.870Z,68.35
2018-05-24T07:12:36.830Z,67.52
2018-05-24T07:13:36.809Z,68.19
2018-05-24T07:14:36.736Z,69.48
2018-05-24T07:15:36.690Z,68.32
2018-05-24T07:16:36.814Z,65.33
2018-05-24T07:17:36.817Z,64.86
2018-05-24T07:18:36.673Z,65.33
2018-05-24T07:19:36.520Z,65.30
2018-05-24T07:20:44.505Z,64.92
2018-05-24T07:21:36.480Z,65.81
2018-05-24T07:22:36.390Z,65.50
2018-05-24T07:23:36.370Z,67.16
2018-05-24T07:24:36.366Z,68.13
2018-05-24T07:25:36.255Z,66.94
2018-05-24T07:26:36.208Z,67.03
2018-05-24T07:27:36.168Z,66.36
2018-05-24T07:28:36.152Z,67.42
2018-05-24T07:29:36.080Z,68.35
2018-05-24T07:30:36.090Z,67.68
2018-05-24T07:31:35.995Z,66.55
2018-05-24T07:32:36.108Z,66.71
2018-05-24T07:33:35.927Z,66.75
2018-05-24T07:34:35.871Z,66.94
2018-05-24T07:35:35.821Z,66.65
2018-05-24T07:36:35.780Z,65.69
2018-05-24T07:37:35.734Z,66.55
2018-05-24T07:38:35.715Z,65.88
2018-05-24T07:39:35.723Z,65.20
2018-05-24T07:40:35.599Z,65.78
2018-05-24T07:41:35.554Z,65.85
2018-05-24T07:42:35.517Z,66.71
2018-05-24T07:43:35.501Z,66.62
2018-05-24T07:44:35.440Z,67.29
2018-05-24T07:45:35.421Z,66.91
2018-05-24T07:46:35.337Z,68.35
2018-05-24T07:47:35.300Z,68.44
2018-05-24T07:48:35.273Z,68.64
2018-05-24T07:49:35.206Z,69.02
2018-05-24T07:50:35.213Z,69.02
2018-05-24T07:51:35.119Z,69.22
2018-05-24T07:52:35.077Z,68.54
2018-05-24T07:53:35.058Z,68.44
2018-05-24T07:54:34.996Z,68.74
2018-05-24T07:55:34.949Z,68.54
2018-05-24T07:56:34.904Z,69.25
2018-05-24T07:57:34.855Z,69.22
2018-05-24T07:58:34.838Z,68.58
2018-05-24T07:59:34.773Z,69.73
2018-05-24T08:00:34.726Z,69.83
2018-05-24T08:01:34.729Z,69.45
2018-05-24T08:02:34.640Z,69.22
2018-05-24T08:03:34.630Z,70.76
2018-05-24T08:04:34.554Z,69.02
2018-05-24T08:05:34.505Z,69.12
2018-05-24T08:06:34.768Z,69.45
2018-05-24T08:07:34.420Z,69.83
2018-05-24T08:08:34.411Z,68.58
2018-05-24T08:09:34.332Z,68.52
2018-05-24T08:10:34.290Z,68.13
2018-05-24T08:11:34.244Z,69.09
2018-05-24T08:12:34.319Z,67.26
2018-05-24T08:13:34.182Z,68.71
2018-05-24T08:14:34.185Z,68.65
2018-05-24T08:15:34.069Z,67.84
2018-05-24T08:16:34.037Z,66.88
2018-05-24T08:17:33.984Z,68.42
2018-05-24T08:18:33.964Z,68.80
2018-05-24T08:19:33.892Z,68.74
2018-05-24T08:20:33.849Z,67.30
2018-05-24T08:21:33.806Z,67.49
2018-05-24T08:22:33.849Z,67.20
2018-05-24T08:23:33.742Z,69.03
2018-05-24T08:24:33.679Z,67.88
2018-05-24T08:25:33.630Z,66.78
2018-05-24T08:26:33.586Z,68.16
2018-05-24T08:27:33.555Z,68.07
2018-05-24T08:28:33.526Z,66.97
2018-05-24T08:29:33.462Z,67.20
2018-05-24T08:30:33.423Z,67.36
2018-05-24T08:31:33.436Z,69.13
2018-05-24T08:32:33.332Z,68.04
2018-05-24T08:33:33.310Z,68.04
2018-05-24T08:34:33.239Z,68.74
2018-05-24T08:35:33.205Z,67.97
2018-05-24T08:36:33.155Z,67.20
2018-05-24T08:37:33.118Z,65.88
2018-05-24T08:38:33.103Z,65.88
2018-05-24T08:39:33.059Z,65.98
2018-05-24T08:40:33.035Z,67.23
2018-05-24T08:41:32.944Z,66.94
2018-05-24T08:42:32.915Z,67.04
2018-05-24T08:43:32.883Z,66.66
2018-05-24T08:44:32.823Z,66.69
2018-05-24T08:45:32.768Z,66.40
2018-05-24T08:46:32.728Z,65.63
2018-05-24T08:47:32.682Z,66.14
2018-05-24T08:48:32.665Z,66.69
2018-05-24T08:49:32.598Z,65.95
2018-05-24T08:50:32.552Z,66.20
2018-05-24T08:51:32.510Z,65.66
2018-05-24T08:52:32.466Z,65.43
2018-05-24T08:53:32.455Z,65.91
2018-05-24T08:54:32.385Z,65.72
2018-05-24T08:55:32.340Z,66.88
2018-05-24T08:56:32.296Z,67.71
2018-05-24T08:57:32.259Z,68.04
2018-05-24T08:58:32.245Z,67.52
2018-05-24T08:59:32.170Z,67.33
2018-05-24T09:00:32.126Z,68.19
2018-05-24T09:01:32.128Z,68.59
2018-05-24T09:02:32.043Z,68.39
2018-05-24T09:03:32.025Z,68.39
2018-05-24T09:04:31.961Z,68.87
2018-05-24T09:05:31.917Z,69.07
2018-05-24T09:06:31.876Z,69.00
2018-05-24T09:07:31.831Z,68.43
2018-05-24T09:08:31.926Z,68.62
2018-05-24T09:09:31.772Z,69.00
2018-05-24T09:10:31.705Z,68.33
2018-05-24T09:11:31.663Z,68.62
2018-05-24T09:12:31.619Z,69.00
2018-05-24T09:13:31.574Z,68.81
2018-05-24T09:14:31.556Z,68.71
2018-05-24T09:15:31.490Z,70.36
2018-05-24T09:16:31.452Z,69.58
2018-05-24T09:17:31.408Z,69.87
2018-05-24T09:18:31.363Z,69.39
2018-05-24T09:19:31.343Z,70.06
2018-05-24T09:20:31.278Z,68.91
2018-05-24T09:21:31.244Z,69.10
2018-05-24T09:22:31.191Z,68.91
2018-05-24T09:23:31.150Z,69.64
2018-05-24T09:24:31.128Z,69.45
2018-05-24T09:25:31.065Z,69.78
2018-05-24T09:26:31.023Z,70.54
2018-05-24T09:27:30.977Z,71.32
2018-05-24T09:28:30.939Z,69.68
2018-05-24T09:29:30.968Z,70.06
2018-05-24T09:30:30.878Z,70.26
2018-05-24T09:31:30.809Z,69.58
2018-05-24T09:32:30.768Z,69.00
2018-05-24T09:33:30.725Z,69.29
2018-05-24T09:34:30.708Z,69.00
2018-05-24T09:35:30.639Z,69.87
2018-05-24T09:36:30.593Z,68.62
2018-05-24T09:37:30.558Z,69.07
2018-05-24T09:38:30.511Z,68.59
2018-05-24T09:39:30.490Z,68.77
2018-05-24T09:40:30.429Z,68.97
2018-05-24T09:41:30.387Z,68.84
2018-05-24T09:42:30.340Z,70.28
2018-05-24T09:43:30.296Z,69.74
2018-05-24T09:44:30.282Z,69.74
2018-05-24T09:45:30.213Z,70.13
2018-05-24T09:46:30.171Z,70.03
2018-05-24T09:47:30.126Z,70.42
2018-05-24T09:48:30.085Z,69.35
2018-05-24T09:49:30.062Z,70.03
2018-05-24T09:50:29.999Z,70.22
2018-05-24T09:51:29.956Z,70.03
2018-05-24T09:52:29.916Z,70.22
2018-05-24T09:53:29.868Z,70.42
2018-05-24T09:54:29.854Z,69.07
2018-05-24T09:55:29.784Z,68.84
2018-05-24T09:56:29.742Z,69.07
2018-05-24T09:57:29.701Z,69.03
2018-05-24T09:58:29.659Z,69.61
2018-05-24T09:59:29.641Z,69.61
2018-05-24T10:00:29.573Z,69.42
2018-05-24T10:01:31.038Z,70.28
2018-05-24T10:02:29.494Z,70.67
2018-05-24T10:03:29.443Z,69.71
2018-05-24T10:04:29.488Z,69.55
2018-05-24T10:05:29.360Z,68.87
2018-05-24T10:06:29.319Z,69.20
2018-05-24T10:07:29.274Z,68.71
2018-05-24T10:08:29.236Z,66.88
2018-05-24T10:09:29.602Z,66.30
2018-05-24T10:10:29.217Z,65.91
2018-05-24T10:11:29.104Z,66.05
2018-05-24T10:12:29.056Z,64.95
2018-05-24T10:13:29.020Z,65.63
2018-05-24T10:14:28.999Z,65.24
2018-05-24T10:15:28.933Z,65.53
2018-05-24T10:16:28.900Z,65.91
2018-05-24T10:17:28.931Z,65.34
2018-05-24T10:18:28.807Z,66.30
2018-05-24T10:19:28.783Z,65.56
2018-05-24T10:20:28.722Z,65.85
2018-05-24T10:21:28.709Z,64.50
2018-05-24T10:22:28.631Z,63.53
2018-05-24T10:23:36.683Z,63.53
2018-05-24T10:24:28.599Z,64.11
2018-05-24T10:25:28.542Z,65.08
2018-05-24T10:26:28.463Z,65.08
2018-05-24T10:27:28.427Z,64.56
2018-05-24T10:28:28.378Z,64.86
2018-05-24T10:29:28.463Z,66.01
2018-05-24T10:30:28.313Z,65.82
2018-05-24T10:31:28.252Z,66.46
2018-05-24T10:32:28.214Z,66.85
2018-05-24T10:33:28.178Z,67.14
2018-05-24T10:34:28.150Z,67.04
2018-05-24T10:35:28.085Z,67.43
2018-05-24T10:36:28.046Z,66.75
2018-05-24T10:37:28.001Z,67.04
2018-05-24T10:38:27.961Z,68.23
2018-05-24T10:39:27.990Z,66.88
2018-05-24T10:40:27.872Z,67.36
2018-05-24T10:41:27.828Z,67.17
2018-05-24T10:42:27.785Z,67.46
2018-05-24T10:43:27.747Z,68.33
2018-05-24T10:44:27.755Z,67.07
2018-05-24T10:45:27.663Z,67.71
2018-05-24T10:46:27.620Z,67.91
2018-05-24T10:47:27.601Z,68.29
2018-05-24T10:48:27.532Z,68.65
2018-05-24T10:49:27.514Z,68.65
2018-05-24T10:50:27.450Z,68.45
2018-05-24T10:51:27.409Z,68.26
2018-05-24T10:52:27.361Z,68.55
2018-05-24T10:53:27.319Z,68.84
2018-05-24T10:54:27.302Z,69.23
2018-05-24T10:55:27.233Z,69.13
2018-05-24T10:56:27.190Z,69.42
2018-05-24T10:57:27.173Z,68.93
2018-05-24T10:58:27.109Z,69.23
2018-05-24T10:59:27.091Z,69.61
2018-05-24T11:00:27.018Z,70.32
2018-05-24T11:01:26.977Z,69.26
2018-05-24T11:02:26.936Z,68.59
2018-05-24T11:03:26.970Z,68.87
2018-05-24T11:04:26.878Z,68.68
2018-05-24T11:05:26.807Z,68.87
2018-05-24T11:06:26.788Z,69.35
2018-05-24T11:07:26.724Z,68.77
2018-05-24T11:08:26.680Z,68.77
2018-05-24T11:09:26.660Z,69.55
2018-05-24T11:10:26.592Z,69.45
2018-05-24T11:11:26.554Z,68.59
2018-05-24T11:12:26.517Z,69.07
2018-05-24T11:13:26.465Z,68.97
2018-05-24T11:14:26.445Z,69.26
2018-05-24T11:15:26.381Z,68.97
2018-05-24T11:16:26.338Z,69.16
2018-05-24T11:17:26.294Z,69.64
2018-05-24T11:18:26.251Z,69.07
2018-05-24T11:19:26.233Z,70.42
2018-05-24T11:20:26.171Z,69.93
2018-05-24T11:21:26.123Z,69.16
2018-05-24T11:22:26.081Z,68.68
2018-05-24T11:23:26.036Z,68.35
2018-05-24T11:24:26.018Z,68.55
2018-05-24T11:25:25.951Z,69.80
2018-05-24T11:26:25.941Z,68.84
2018-05-24T11:27:25.969Z,70.00
2018-05-24T11:28:25.826Z,69.13
2018-05-24T11:29:25.804Z,70.00
2018-05-24T11:30:25.738Z,68.93
2018-05-24T11:31:25.695Z,69.13
2018-05-24T11:32:25.709Z,69.23
2018-05-24T11:33:25.610Z,70.19
2018-05-24T11:34:25.592Z,69.90
2018-05-24T11:35:25.530Z,69.13
2018-05-24T11:36:25.479Z,69.23
2018-05-24T11:37:25.508Z,70.48
2018-05-24T11:38:25.401Z,70.09
2018-05-24T11:39:25.420Z,69.77
2018-05-24T11:40:25.308Z,71.34
2018-05-24T11:41:25.265Z,71.41
2018-05-24T11:42:25.220Z,71.12
2018-05-24T11:43:25.354Z,71.06
2018-05-24T11:44:25.161Z,71.12
2018-05-24T11:45:25.095Z,72.08
2018-05-24T11:46:25.048Z,72.85
2018-05-24T11:47:25.232Z,73.24
2018-05-24T11:48:24.964Z,73.33
2018-05-24T11:49:24.949Z,74.78
2018-05-24T11:50:24.880Z,75.45
2018-05-24T11:51:24.837Z,74.58
2018-05-24T11:52:24.789Z,75.99
2018-05-24T11:53:24.749Z,77.73
2018-05-24T11:54:24.747Z,76.38
2018-05-24T11:55:24.675Z,78.50
2018-05-24T11:56:24.617Z,77.44
2018-05-24T11:57:24.726Z,77.92
2018-05-24T11:58:24.529Z,79.75
2018-05-24T11:59:24.483Z,79.13
2018-05-24T12:00:24.470Z,77.69
2018-05-24T12:01:24.396Z,76.15
2018-05-24T12:02:24.354Z,76.25
2018-05-24T12:03:24.310Z,76.73
2018-05-24T12:04:24.264Z,77.78
2018-05-24T12:05:24.245Z,76.53
2018-05-24T12:06:24.178Z,77.31
2018-05-24T12:07:24.135Z,76.53
2018-05-24T12:08:24.090Z,77.69
2018-05-24T12:09:24.043Z,78.27
2018-05-24T12:10:24.024Z,77.50
2018-05-24T12:11:23.954Z,78.08
2018-05-24T12:12:23.935Z,80.96
2018-05-24T12:13:23.866Z,80.87
2018-05-24T12:14:23.822Z,80.68
2018-05-24T12:15:23.803Z,81.25
2018-05-24T12:16:23.733Z,81.35
2018-05-24T12:17:23.690Z,81.93
2018-05-24T12:18:23.647Z,84.05
2018-05-24T12:19:23.601Z,83.08
2018-05-24T12:20:23.580Z,83.56
2018-05-24T12:21:23.512Z,85.20
2018-05-24T12:22:23.473Z,86.55
2018-05-24T12:23:23.423Z,86.74
2018-05-24T12:24:23.379Z,86.31
2018-05-24T12:25:23.364Z,87.08
2018-05-24T12:26:23.297Z,87.95
2018-05-24T12:27:23.252Z,87.46
2018-05-24T12:28:23.206Z,86.12
2018-05-24T12:29:23.164Z,87.18
2018-05-24T12:30:23.139Z,87.56
2018-05-24T12:31:23.069Z,87.18
2018-05-24T12:32:23.028Z,86.89
2018-05-24T12:33:22.981Z,86.99
2018-05-24T12:34:22.937Z,87.66
2018-05-24T12:35:23.687Z,87.62
2018-05-24T12:36:23.662Z,87.71
2018-05-24T12:37:22.807Z,87.23
2018-05-24T12:38:22.757Z,88.10
2018-05-24T12:39:22.713Z,88.39
2018-05-24T12:40:22.727Z,89.15
2018-05-24T12:41:22.628Z,89.35
2018-05-24T12:42:22.581Z,89.35
2018-05-24T12:43:22.536Z,87.81
2018-05-24T12:44:22.489Z,87.57
2018-05-24T12:45:22.469Z,89.40
2018-05-24T12:46:22.404Z,91.17
2018-05-24T12:47:22.354Z,91.46
2018-05-24T12:48:22.309Z,90.69
2018-05-24T12:49:22.268Z,89.92
2018-05-24T12:50:22.254Z,90.98
2018-05-24T12:51:22.180Z,91.66
2018-05-24T12:52:22.136Z,92.52